Time;durP1;ratioP1;P1;durP2;ratioP2;P2;SDS_P1;SDS_P2;PMS_P1;PMS_P2;Temp;Humidity;BMP_temperature;BMP_pressure;BME280_temperature;BME280_humidity;BME280_pressure;Samples;Min_cycle;Max_cycle;Signal;HPM_P1;HPM_P2
2021/05/02 01:41:19;;;;;;;27.55;18.27;;;10.80;99.90;;;;;;3521037;40;20075;-87
2021/05/02 01:43:47;;;;;;;26.40;16.80;;;10.90;99.90;;;;;;3522418;40;20186;-85
2021/05/02 01:46:22;;;;;;;22.70;15.37;;;10.80;99.90;;;;;;3523890;40;20063;-82
2021/05/02 01:48:50;;;;;;;25.60;16.63;;;10.80;99.90;;;;;;3515662;40;20064;-82
2021/05/02 01:51:21;;;;;;;25.55;15.90;;;10.70;99.90;;;;;;3531189;40;20083;-86
2021/05/02 01:53:53;;;;;;;24.35;16.85;;;10.70;99.90;;;;;;3530976;40;20058;-80
2021/05/02 02:00:08;;;;;;;27.52;16.75;;;10.70;99.90;;;;;;3529265;40;20060;-85
2021/05/02 02:03:02;;;;;;;27.15;17.10;;;10.70;99.90;;;;;;3529962;40;20071;-81
2021/05/02 02:05:42;;;;;;;26.65;17.50;;;10.70;99.90;;;;;;3520970;40;20087;-83
2021/05/02 02:08:30;;;;;;;28.77;17.75;;;10.60;99.90;;;;;;3530741;40;20071;-82
2021/05/02 02:11:10;;;;;;;26.33;17.17;;;10.70;99.90;;;;;;3529863;40;20087;-82
2021/05/02 02:14:14;;;;;;;26.70;16.00;;;10.80;99.90;;;;;;3523200;40;20066;-83
2021/05/02 02:17:12;;;;;;;26.60;17.25;;;10.70;99.90;;;;;;3521945;40;20075;-83
2021/05/02 02:19:59;;;;;;;28.70;18.25;;;10.70;99.90;;;;;;3530897;40;20060;-83
2021/05/02 02:22:38;;;;;;;27.48;17.67;;;10.60;99.90;;;;;;3529385;40;20067;-82
2021/05/02 02:25:10;;;;;;;;;;;10.60;99.90;;;;;;3539638;40;20410;-83
2021/05/02 02:28:58;;;;;;;26.13;16.65;;;10.50;99.90;;;;;;3511222;41;19964;-84
2021/05/02 02:31:51;;;;;;;27.67;18.20;;;10.60;99.90;;;;;;3498192;41;20069;-83
2021/05/02 02:35:01;;;;;;;;;;;10.50;99.90;;;;;;3498677;41;20061;-82
2021/05/02 02:37:35;;;;;;;26.05;17.45;;;10.60;99.90;;;;;;3491287;41;19963;-81
2021/05/02 02:41:08;;;;;;;26.73;17.58;;;10.50;99.90;;;;;;3494303;41;20081;-81
2021/05/02 02:44:41;;;;;;;33.65;18.10;;;10.50;99.90;;;;;;3480198;41;20074;-84
2021/05/02 02:50:44;;;;;;;27.50;17.88;;;10.40;99.90;;;;;;3476478;41;20062;-84
2021/05/02 02:53:27;;;;;;;27.42;19.50;;;10.40;99.90;;;;;;3484382;41;20446;-82
2021/05/02 02:56:18;;;;;;;29.33;18.50;;;10.30;99.90;;;;;;3476437;41;20109;-83
2021/05/02 02:59:06;;;;;;;26.63;17.85;;;10.20;99.90;;;;;;3476198;41;20070;-81
2021/05/02 03:02:10;;;;;;;26.08;17.63;;;10.20;99.90;;;;;;3441597;41;20328;-80
2021/05/02 03:05:29;;;;;;;28.63;18.20;;;10.20;99.90;;;;;;3468103;41;20434;-82
2021/05/02 03:11:02;;;;;;;26.52;16.77;;;10.20;99.90;;;;;;3464630;41;20322;-81
2021/05/02 03:13:46;;;;;;;27.33;16.88;;;10.20;99.90;;;;;;3499573;41;20072;-81
2021/05/02 03:16:53;;;;;;;23.50;16.58;;;10.20;99.90;;;;;;3498203;41;20057;-83
2021/05/02 03:19:28;;;;;;;25.70;17.80;;;10.20;99.90;;;;;;3500830;41;20100;-85
2021/05/02 03:22:23;;;;;;;25.48;15.95;;;10.20;99.90;;;;;;3502901;41;20096;-83
2021/05/02 03:24:56;;;;;;;29.92;17.77;;;10.20;99.90;;;;;;3514937;41;20072;-83
2021/05/02 03:27:27;;;;;;;25.63;17.42;;;10.20;99.90;;;;;;3510187;41;20063;-82
2021/05/02 03:30:05;;;;;;;23.65;16.50;;;10.20;99.90;;;;;;3508815;41;20076;-80
2021/05/02 03:32:35;;;;;;;24.08;16.40;;;10.20;99.90;;;;;;3517946;40;20104;-80
2021/05/02 03:35:06;;;;;;;25.65;17.08;;;10.20;99.90;;;;;;3511068;40;20072;-83
2021/05/02 03:37:40;;;;;;;25.45;17.17;;;10.10;99.90;;;;;;3503957;40;20063;-84
2021/05/02 03:40:09;;;;;;;25.80;17.83;;;10.20;99.90;;;;;;3528035;40;20051;-84
2021/05/02 03:42:36;;;;;;;28.88;17.80;;;10.10;99.90;;;;;;3506964;40;20079;-81
2021/05/02 03:45:05;;;;;;;27.85;17.42;;;10.10;99.90;;;;;;3513240;40;20064;-82
2021/05/02 03:47:33;;;;;;;27.27;17.80;;;10.00;99.90;;;;;;3512705;40;20516;-86
2021/05/02 03:50:06;;;;;;;27.15;17.52;;;10.00;99.90;;;;;;3513069;40;20040;-82
2021/05/02 03:52:36;;;;;;;26.70;18.05;;;10.00;99.90;;;;;;3513166;40;20360;-83
2021/05/02 03:55:06;;;;;;;29.73;17.98;;;10.00;99.90;;;;;;3520785;40;20040;-82
2021/05/02 03:57:36;;;;;;;25.92;17.23;;;9.90;99.90;;;;;;3519900;40;20080;-81
2021/05/02 04:00:06;;;;;;;25.63;17.23;;;10.00;99.90;;;;;;3513838;40;20105;-82
2021/05/02 04:02:41;;;;;;;26.35;17.63;;;10.00;99.90;;;;;;3512280;40;20052;-85
2021/05/02 04:05:09;;;;;;;28.48;17.83;;;10.00;99.90;;;;;;3515393;40;20036;-83
2021/05/02 04:07:40;;;;;;;24.42;17.00;;;10.00;99.90;;;;;;3515085;40;20051;-82
2021/05/02 04:10:08;;;;;;;28.13;18.08;;;9.90;99.90;;;;;;3506289;40;20091;-81
2021/05/02 04:12:36;;;;;;;25.63;17.35;;;9.90;99.90;;;;;;3513783;40;20051;-82
2021/05/02 04:15:05;;;;;;;24.80;16.95;;;9.90;99.90;;;;;;3498334;40;20087;-82
2021/05/02 04:17:34;;;;;;;26.13;17.25;;;9.90;99.90;;;;;;3520762;40;20038;-82
2021/05/02 04:20:06;;;;;;;26.35;17.90;;;9.90;99.90;;;;;;3523175;40;20269;-82
2021/05/02 04:22:34;;;;;;;24.92;16.92;;;9.90;99.90;;;;;;3523304;40;20067;-81
2021/05/02 04:25:06;;;;;;;25.35;16.38;;;9.90;99.90;;;;;;3531441;40;20080;-81
2021/05/02 04:27:38;;;;;;;25.92;16.83;;;9.90;99.90;;;;;;3515000;40;20039;-83
2021/05/02 04:30:07;;;;;;;26.25;17.73;;;9.90;99.90;;;;;;3522774;40;20036;-84
2021/05/02 04:32:34;;;;;;;24.83;17.17;;;9.90;99.90;;;;;;3529623;40;20064;-84
2021/05/02 04:35:03;;;;;;;27.30;17.70;;;9.90;99.90;;;;;;3530808;40;20082;-81
2021/05/02 04:37:32;;;;;;;25.45;17.15;;;9.90;99.90;;;;;;3522600;40;20040;-81
2021/05/02 04:40:01;;;;;;;28.50;17.35;;;9.90;99.90;;;;;;3514404;40;20332;-81
2021/05/02 04:42:39;;;;;;;27.50;17.92;;;9.90;99.90;;;;;;3519801;40;20039;-81
2021/05/02 04:45:11;;;;;;;27.67;17.25;;;9.90;99.90;;;;;;3531776;40;20063;-82
2021/05/02 04:47:38;;;;;;;28.27;18.42;;;9.90;99.90;;;;;;3532003;40;20067;-84
2021/05/02 04:50:07;;;;;;;24.20;17.30;;;9.90;99.90;;;;;;3540151;40;20054;-80
2021/05/02 04:52:39;;;;;;;30.50;18.60;;;9.90;99.90;;;;;;3523552;40;20038;-82
2021/05/02 04:55:07;;;;;;;28.08;18.45;;;9.90;99.90;;;;;;3530248;40;20122;-84
2021/05/02 04:57:38;;;;;;;27.92;17.48;;;9.90;99.90;;;;;;3529582;40;20064;-82
2021/05/02 05:00:07;;;;;;;24.95;17.40;;;9.90;99.90;;;;;;3521441;40;20067;-82
2021/05/02 05:02:34;;;;;;;25.98;17.55;;;10.00;99.90;;;;;;3530111;40;20077;-81
2021/05/02 05:05:02;;;;;;;25.15;16.50;;;10.00;99.90;;;;;;3522457;40;20064;-84
2021/05/02 05:07:29;;;;;;;28.00;17.65;;;9.90;99.90;;;;;;3521299;40;20059;-81
2021/05/02 05:09:57;;;;;;;28.17;17.63;;;9.90;99.90;;;;;;3511216;40;20067;-82
2021/05/02 05:12:26;;;;;;;29.05;18.35;;;10.00;99.90;;;;;;3519063;40;20415;-86
2021/05/02 05:14:57;;;;;;;27.05;17.27;;;10.10;99.90;;;;;;3524557;40;20091;-80
2021/05/02 05:17:28;;;;;;;29.85;18.45;;;10.10;99.90;;;;;;3527751;40;20130;-84
2021/05/02 05:19:59;;;;;;;26.52;18.40;;;10.20;99.90;;;;;;3517142;40;20063;-82
2021/05/02 05:22:27;;;;;;;26.70;18.02;;;10.20;99.90;;;;;;3530270;40;20067;-83
2021/05/02 05:24:55;;;;;;;31.13;19.17;;;10.20;99.90;;;;;;3529930;40;20059;-82
2021/05/02 05:27:28;;;;;;;30.05;19.10;;;10.30;99.90;;;;;;3513589;40;20028;-82
2021/05/02 05:30:15;;;;;;;25.00;17.13;;;10.30;99.90;;;;;;3505822;40;20072;-83
2021/05/02 05:32:45;;;;;;;26.57;18.00;;;10.20;99.90;;;;;;3514672;40;20036;-81
2021/05/02 05:35:13;;;;;;;30.98;20.02;;;10.30;99.90;;;;;;3523418;40;20335;-82
2021/05/02 05:37:45;;;;;;;27.58;18.10;;;10.20;99.90;;;;;;3521894;40;20059;-81
2021/05/02 05:40:18;;;;;;;28.60;18.55;;;10.30;99.90;;;;;;3521360;40;20384;-81
2021/05/02 05:42:46;;;;;;;27.98;17.55;;;10.30;99.90;;;;;;3512998;40;20315;-81
2021/05/02 05:45:20;;;;;;;25.40;17.42;;;10.30;99.90;;;;;;3519855;40;20084;-80
2021/05/02 05:47:54;;;;;;;26.10;17.95;;;10.30;99.90;;;;;;3513825;40;20043;-81
2021/05/02 05:50:25;;;;;;;23.00;15.77;;;10.30;99.90;;;;;;3513412;40;20363;-82
2021/05/02 05:52:58;;;;;;;23.75;16.35;;;10.30;99.90;;;;;;3505061;40;20079;-83
2021/05/02 05:55:27;;;;;;;22.48;15.40;;;10.40;99.90;;;;;;3513094;40;20043;-82
2021/05/02 05:57:55;;;;;;;26.52;16.10;;;10.40;99.90;;;;;;3520539;40;20046;-81
2021/05/02 06:00:33;;;;;;;21.77;15.40;;;10.40;99.90;;;;;;3520518;40;20063;-82
2021/05/02 06:03:03;;;;;;;22.92;15.35;;;10.50;99.90;;;;;;3501827;41;20660;-81
2021/05/02 06:05:31;;;;;;;22.45;14.45;;;10.50;99.90;;;;;;3502353;41;20064;-82
2021/05/02 06:08:02;;;;;;;24.23;14.40;;;10.60;99.90;;;;;;3502256;41;20064;-82
2021/05/02 06:10:32;;;;;;;19.60;13.20;;;10.50;99.90;;;;;;3507310;41;20072;-80
2021/05/02 06:13:24;;;;;;;19.35;12.90;;;10.50;99.90;;;;;;3502473;40;20064;-83
2021/05/02 06:15:53;;;;;;;20.55;12.35;;;10.50;99.90;;;;;;3503192;41;20029;-83
2021/05/02 06:18:20;;;;;;;15.80;12.25;;;10.40;99.90;;;;;;3511749;41;20032;-82
2021/05/02 06:20:47;;;;;;;14.90;10.93;;;10.40;99.90;;;;;;3502669;41;20043;-82
2021/05/02 06:23:18;;;;;;;16.63;11.95;;;10.20;99.90;;;;;;3502771;41;20073;-83
2021/05/02 06:25:50;;;;;;;14.13;9.65;;;10.10;99.90;;;;;;3503137;41;20065;-82
2021/05/02 06:28:20;;;;;;;15.35;10.77;;;10.10;99.90;;;;;;3494822;41;20072;-83
2021/05/02 06:31:00;;;;;;;14.55;10.00;;;10.10;99.90;;;;;;3502748;41;20044;-82
2021/05/02 06:33:30;;;;;;;15.50;9.18;;;10.00;99.90;;;;;;3502655;41;20068;-82
2021/05/02 06:35:59;;;;;;;12.98;8.68;;;10.00;99.90;;;;;;3502551;41;20126;-82
2021/05/02 06:38:28;;;;;;;12.85;9.13;;;9.90;99.90;;;;;;3502090;41;20073;-82
2021/05/02 06:40:55;;;;;;;12.20;8.05;;;10.00;99.90;;;;;;3502424;41;20073;-80
2021/05/02 06:43:24;;;;;;;11.82;8.27;;;10.00;99.90;;;;;;3494441;41;20060;-81
2021/05/02 06:49:25;;;;;;;11.00;7.90;;;10.20;99.90;;;;;;3503059;41;20065;-83
2021/05/02 06:51:53;;;;;;;10.40;7.32;;;10.30;99.90;;;;;;3511315;41;20100;-87
2021/05/02 06:54:22;;;;;;;10.75;7.50;;;10.30;99.90;;;;;;3502326;41;20048;-83
2021/05/02 06:56:52;;;;;;;10.15;6.50;;;10.30;99.90;;;;;;3493427;41;20040;-83
2021/05/02 06:59:20;;;;;;;10.00;6.18;;;10.30;99.90;;;;;;3505913;41;20072;-81
2021/05/02 07:01:51;;;;;;;;;;;10.30;99.90;;;;;;3500856;41;20119;-85
2021/05/02 07:04:19;;;;;;;10.23;6.93;;;10.30;99.90;;;;;;3493673;41;19963;-85
2021/05/02 07:06:54;;;;;;;11.52;7.80;;;10.30;99.90;;;;;;3504126;41;20045;-84
2021/05/02 07:09:31;;;;;;;13.65;7.82;;;10.30;99.90;;;;;;3508562;41;20636;-84
2021/05/02 07:12:08;;;;;;;10.52;7.55;;;10.50;99.90;;;;;;3505719;41;20036;-87
2021/05/02 07:14:38;;;;;;;10.98;7.82;;;10.50;99.90;;;;;;3513560;41;20035;-87
2021/05/02 07:17:12;;;;;;;11.10;7.85;;;10.60;99.90;;;;;;3511982;41;20056;-84
2021/05/02 07:19:42;;;;;;;11.95;7.70;;;10.80;99.90;;;;;;3502659;40;20277;-84
2021/05/02 07:22:10;;;;;;;10.77;8.32;;;10.80;99.90;;;;;;3505694;41;20051;-82
2021/05/02 07:24:38;;;;;;;11.23;7.88;;;10.90;99.90;;;;;;3503834;41;20044;-82
2021/05/02 07:27:05;;;;;;;11.48;8.02;;;10.90;99.90;;;;;;3532786;40;20043;-82
2021/05/02 07:29:38;;;;;;;15.88;8.50;;;10.90;99.90;;;;;;3532392;40;20050;-84
2021/05/02 07:32:06;;;;;;;13.10;8.80;;;10.80;99.90;;;;;;3523936;40;20040;-82
2021/05/02 07:34:33;;;;;;;42.65;24.30;;;10.70;99.90;;;;;;3522570;40;20046;-83
2021/05/02 07:37:01;;;;;;;15.23;10.25;;;10.60;99.90;;;;;;3522466;40;20083;-82
2021/05/02 07:39:32;;;;;;;16.55;10.88;;;10.50;99.90;;;;;;3522692;40;20063;-82
2021/05/02 07:42:24;;;;;;;17.83;10.80;;;10.50;99.90;;;;;;3529593;40;20075;-83
2021/05/02 07:44:52;;;;;;;14.57;10.05;;;10.50;99.90;;;;;;3521774;40;20071;-87
2021/05/02 07:47:20;;;;;;;17.20;10.98;;;10.50;99.90;;;;;;3513306;40;20072;-83
2021/05/02 07:49:50;;;;;;;16.75;11.40;;;10.50;99.90;;;;;;3521437;40;20351;-83
2021/05/02 07:52:17;;;;;;;20.13;12.30;;;10.50;99.90;;;;;;3526530;40;20060;-81
2021/05/02 07:54:46;;;;;;;16.63;11.30;;;10.70;99.90;;;;;;3529940;40;20176;-83
2021/05/02 07:57:15;;;;;;;16.20;11.57;;;10.80;99.90;;;;;;3537446;40;20075;-83
2021/05/02 07:59:44;;;;;;;16.42;11.10;;;10.70;99.90;;;;;;3522122;40;20063;-81
2021/05/02 08:02:14;;;;;;;14.98;10.82;;;10.60;99.90;;;;;;3530069;40;20075;-81
2021/05/02 08:04:45;;;;;;;16.10;11.82;;;10.50;99.90;;;;;;3530153;40;20071;-82
2021/05/02 08:07:43;;;;;;;17.50;12.15;;;10.50;99.90;;;;;;3530594;40;20072;-83
2021/05/02 08:10:14;;;;;;;16.50;11.15;;;10.40;99.90;;;;;;3523248;40;20032;-84
2021/05/02 08:12:41;;;;;;;15.63;11.30;;;10.40;99.90;;;;;;3522987;40;20020;-83
2021/05/02 08:15:28;;;;;;;18.63;12.52;;;10.30;99.90;;;;;;3510865;40;20088;-85
2021/05/02 08:18:06;;;;;;;23.67;16.02;;;10.00;99.90;;;;;;3474095;41;20066;-83
2021/05/02 08:20:34;;;;;;;26.90;18.38;;;9.90;99.90;;;;;;3473212;41;20069;-84
2021/05/02 08:23:06;;;;;;;30.47;18.93;;;9.70;99.90;;;;;;3474677;41;20037;-82
2021/05/02 08:25:37;;;;;;;31.92;19.55;;;9.70;99.90;;;;;;3474652;41;20342;-86
2021/05/02 08:28:05;;;;;;;30.70;20.13;;;9.70;99.90;;;;;;3482937;41;20046;-81
2021/05/02 08:30:34;;;;;;;36.83;20.83;;;9.80;99.90;;;;;;3492019;41;20065;-84
2021/05/02 08:33:14;;;;;;;30.52;20.85;;;9.70;99.90;;;;;;3492996;41;20084;-84
2021/05/02 08:35:59;;;;;;;33.15;20.85;;;9.80;99.90;;;;;;3476742;41;20073;-84
2021/05/02 08:38:27;;;;;;;31.83;20.38;;;9.90;99.90;;;;;;3484694;41;20041;-82
2021/05/02 08:40:58;;;;;;;36.53;21.67;;;9.90;99.90;;;;;;3473936;41;20046;-83
2021/05/02 08:43:54;;;;;;;32.15;20.17;;;9.90;99.90;;;;;;3489738;41;20334;-82
2021/05/02 08:46:25;;;;;;;32.15;21.08;;;9.90;99.90;;;;;;3477358;41;20030;-85
2021/05/02 08:52:37;;;;;;;38.40;23.27;;;9.80;99.90;;;;;;3492629;41;20052;-83
2021/05/02 08:55:11;;;;;;;36.60;22.90;;;9.70;99.90;;;;;;3503349;40;20050;-83
2021/05/02 09:00:26;;;;;;;39.42;24.40;;;9.70;99.90;;;;;;3515958;40;20032;-84
2021/05/02 09:03:14;;;;;;;39.63;23.77;;;9.80;99.90;;;;;;3506123;40;20031;-84
2021/05/02 09:05:48;;;;;;;36.57;22.93;;;9.80;99.90;;;;;;3515594;40;20051;-83
2021/05/02 09:08:47;;;;;;;38.35;24.48;;;9.80;99.90;;;;;;3495118;41;20312;-83
2021/05/02 09:11:35;;;;;;;38.38;23.30;;;9.70;99.90;;;;;;3515728;40;20040;-84
2021/05/02 09:14:09;;;;;;;42.45;24.25;;;9.70;99.90;;;;;;3506477;40;20092;-85
2021/05/02 09:16:50;;;;;;;40.80;23.83;;;9.60;99.90;;;;;;3523513;40;20046;-83
2021/05/02 09:19:35;;;;;;;44.75;25.40;;;9.40;99.90;;;;;;3498551;40;20300;-83
2021/05/02 09:22:21;;;;;;;;;;;9.40;99.90;;;;;;3513508;41;20036;-83
2021/05/02 09:27:58;;;;;;;40.75;24.45;;;9.40;99.90;;;;;;3520081;40;20068;-82
2021/05/02 09:33:30;;;;;;;41.78;23.92;;;9.40;99.90;;;;;;3448558;41;20067;-82
2021/05/02 09:39:35;;;;;;;39.83;22.83;;;9.60;99.90;;;;;;3465343;41;20161;-84
2021/05/02 09:42:20;;;;;;;35.22;21.50;;;9.70;99.90;;;;;;3457610;41;20071;-87
2021/05/02 09:44:56;;;;;;;37.58;21.85;;;9.70;99.90;;;;;;3465927;41;20035;-84
2021/05/02 09:47:31;;;;;;;37.25;23.25;;;9.60;99.90;;;;;;3465623;41;20079;-83
2021/05/02 09:50:10;;;;;;;33.15;21.83;;;9.60;99.90;;;;;;3464411;41;20042;-82
2021/05/02 09:53:07;;;;;;;39.78;22.75;;;9.60;99.90;;;;;;3467187;41;20058;-82
2021/05/02 09:55:51;;;;;;;36.67;22.85;;;9.60;99.90;;;;;;3473470;41;20050;-86
2021/05/02 09:58:23;;;;;;;35.33;21.92;;;9.60;99.90;;;;;;3474746;41;20042;-83
2021/05/02 10:01:08;;;;;;;37.88;21.75;;;9.50;99.90;;;;;;3471466;41;20455;-82
2021/05/02 10:03:44;;;;;;;37.75;22.33;;;9.60;99.90;;;;;;3492425;41;20081;-81
2021/05/02 10:06:12;;;;;;;34.35;20.73;;;9.60;99.90;;;;;;3492265;41;20089;-82
2021/05/02 10:08:45;;;;;;;32.72;21.50;;;9.70;99.90;;;;;;3508194;40;20056;-83
2021/05/02 10:11:26;;;;;;;30.88;20.13;;;9.70;99.90;;;;;;3492968;41;20073;-83
2021/05/02 10:14:22;;;;;;;36.63;22.42;;;9.60;99.90;;;;;;3517642;23;20069;31
2021/05/02 10:16:56;;;;;;;39.58;22.58;;;9.60;99.90;;;;;;3610641;23;20055;-85
2021/05/02 10:23:49;;;;;;;;;;;9.40;99.90;;;;;;3524871;40;20063;-83
2021/05/02 10:27:15;;;;;;;;;;;9.50;99.90;;;;;;3531542;40;19945;-84
2021/05/02 10:29:49;;;;;;;31.48;18.10;;;9.40;99.90;;;;;;3514712;40;19943;-83
2021/05/02 10:32:22;;;;;;;30.33;20.10;;;9.30;99.90;;;;;;3510830;40;20067;-87
2021/05/02 10:35:11;;;;;;;31.13;20.58;;;9.20;99.90;;;;;;3531956;40;20040;-83
2021/05/02 10:37:57;;;;;;;32.55;20.70;;;9.20;99.90;;;;;;3512945;41;20057;-84
2021/05/02 10:47:50;;;;;;;29.25;18.92;;;9.10;99.90;;;;;;3476777;41;20073;-83
2021/05/02 10:58:20;;;;;;;33.80;19.95;;;9.20;99.90;;;;;;3483223;41;20041;-84
2021/05/02 11:01:37;;;;;;;29.50;19.48;;;9.20;99.90;;;;;;3473361;41;20038;-87
2021/05/02 11:04:25;;;;;;;29.45;19.73;;;9.30;99.90;;;;;;3465531;41;20031;-86
2021/05/02 11:08:02;;;;;;;26.02;18.02;;;9.50;99.90;;;;;;3446797;41;20067;-84
2021/05/02 11:14:45;;;;;;;23.77;17.33;;;9.50;99.90;;;;;;3447564;41;20035;-85
2021/05/02 11:17:45;;;;;;;27.95;18.38;;;9.50;99.90;;;;;;3432256;41;20035;-86
2021/05/02 11:21:04;;;;;;;27.58;18.58;;;9.40;99.90;;;;;;3456945;41;20039;-85
2021/05/02 11:24:31;;;;;;;29.90;17.45;;;9.30;99.90;;;;;;3488245;41;20061;-84
2021/05/02 11:27:04;;;;;;;27.67;17.00;;;9.30;99.90;;;;;;3475733;41;20090;-83
2021/05/02 11:30:25;;;;;;;24.13;16.50;;;9.30;99.90;;;;;;3483492;41;20042;-85
2021/05/02 11:33:38;;;;;;;27.08;17.80;;;9.30;99.90;;;;;;3492136;41;20045;-88
2021/05/02 11:37:05;;;;;;;25.65;16.58;;;9.30;99.90;;;;;;3483252;41;20070;-87
2021/05/02 11:40:02;;;;;;;28.30;16.95;;;9.20;99.90;;;;;;3513296;41;20054;-84
2021/05/02 11:43:28;;;;;;;23.85;16.40;;;9.20;99.90;;;;;;3502026;41;20041;-85
2021/05/02 11:46:19;;;;;;;27.17;16.10;;;9.20;99.90;;;;;;3493638;41;20029;-84
2021/05/02 11:53:04;;;;;;;24.58;15.02;;;9.40;99.90;;;;;;3501640;41;20052;-85
2021/05/02 12:00:14;;;;;;;20.15;14.20;;;9.60;99.90;;;;;;3492241;41;20058;-85
2021/05/02 12:03:26;;;;;;;24.10;14.77;;;9.70;99.90;;;;;;3474021;41;20062;-83
2021/05/02 13:14:05;;;;;;;21.67;12.05;;;9.00;99.90;;;;;;4202428;23;20293;-83
2021/05/02 13:16:51;;;;;;;27.73;15.90;;;8.90;99.90;;;;;;3533792;40;20027;-86
2021/05/02 13:19:40;;;;;;;27.27;19.05;;;8.80;99.90;;;;;;3543707;40;20038;-84
2021/05/02 13:22:43;;;;;;;25.80;17.27;;;8.70;99.90;;;;;;3504609;41;20072;-84
2021/05/02 13:25:23;;;;;;;23.90;16.48;;;8.70;99.90;;;;;;3478170;41;20037;-82
2021/05/02 14:34:36;;;;;;;13.75;9.30;;;7.70;99.90;;;;;;3540439;40;20046;-85
2021/05/02 14:37:06;;;;;;;14.23;9.48;;;7.80;99.90;;;;;;3525405;40;20035;-86
2021/05/02 14:51:39;;;;;;;15.18;8.60;;;8.70;99.90;;;;;;3518761;40;20072;-84
2021/05/02 14:54:12;;;;;;;17.13;9.00;;;8.60;99.90;;;;;;3512071;41;20040;-83
2021/05/02 14:56:48;;;;;;;12.93;8.80;;;8.50;99.90;;;;;;3504942;41;20032;-84
2021/05/02 15:27:43;;;;;;;7.38;4.65;;;8.60;99.90;;;;;;3531391;40;20064;-88
2021/05/02 15:30:12;;;;;;;8.32;4.40;;;8.40;99.90;;;;;;3533155;40;20093;-89
2021/05/02 16:15:13;;;;;;;6.57;4.50;;;7.40;99.90;;;;;;3543342;40;20042;-85
2021/05/02 16:21:59;;;;;;;7.88;4.65;;;7.40;99.90;;;;;;3534511;40;20038;-83
2021/05/02 16:24:30;;;;;;;6.93;4.00;;;7.50;99.90;;;;;;3540659;40;20066;-88
2021/05/02 16:27:48;;;;;;;5.88;3.25;;;7.40;99.90;;;;;;3523459;40;20048;-84
2021/05/02 16:30:29;;;;;;;6.80;3.55;;;7.80;99.90;;;;;;3515366;40;20036;-85
2021/05/02 16:33:15;;;;;;;5.95;3.72;;;7.80;99.90;;;;;;3523182;40;20036;-89
2021/05/02 16:42:08;;;;;;;7.80;4.05;;;7.60;99.90;;;;;;3531551;40;20040;-84
2021/05/02 16:44:42;;;;;;;6.43;3.83;;;7.60;99.90;;;;;;3524986;40;20035;-84
2021/05/02 16:47:18;;;;;;;4.82;2.72;;;7.60;99.90;;;;;;3517114;40;20039;-84
2021/05/02 16:49:52;;;;;;;5.78;2.80;;;7.50;99.90;;;;;;3516819;40;20040;-84
2021/05/02 16:52:33;;;;;;;6.38;3.33;;;7.30;99.90;;;;;;3508573;40;20059;-85
2021/05/02 16:55:13;;;;;;;4.63;3.10;;;7.40;99.90;;;;;;3524712;40;20044;-85
2021/05/02 16:58:57;;;;;;;7.28;3.30;;;7.60;99.90;;;;;;3530740;40;20406;-82
2021/05/02 17:01:51;;;;;;;8.93;3.95;;;7.40;99.90;;;;;;3531472;40;20024;-82
2021/05/02 17:04:40;;;;;;;6.75;3.65;;;7.30;99.90;;;;;;3523348;40;20036;-83
2021/05/02 17:07:09;;;;;;;9.85;4.00;;;7.40;99.90;;;;;;3515296;40;20040;-85
2021/05/02 17:10:00;;;;;;;6.82;4.03;;;7.50;99.90;;;;;;3524487;40;20031;-87
2021/05/02 17:13:05;;;;;;;7.82;3.53;;;7.60;99.90;;;;;;3516402;40;20035;-86
2021/05/02 17:15:56;;;;;;;6.47;3.75;;;7.70;99.90;;;;;;3524549;40;20032;-86
2021/05/02 17:18:29;;;;;;;7.10;3.28;;;7.40;99.90;;;;;;3512187;41;20067;-83
2021/05/02 17:21:14;;;;;;;6.10;3.00;;;7.80;99.90;;;;;;3509609;40;20052;-82
2021/05/02 17:23:47;;;;;;;6.38;2.90;;;7.60;99.90;;;;;;3500263;41;20037;-85
2021/05/02 17:26:19;;;;;;;21.00;4.20;;;7.30;99.90;;;;;;3507823;41;20318;-83
2021/05/02 17:28:55;;;;;;;6.70;3.70;;;7.10;99.90;;;;;;3515675;40;20084;-83
2021/05/02 17:31:32;;;;;;;6.53;3.78;;;6.90;99.90;;;;;;3505792;41;20077;-83
2021/05/02 17:34:05;;;;;;;5.72;3.50;;;6.90;99.90;;;;;;3509675;41;20069;-84
2021/05/02 17:36:37;;;;;;;9.55;4.18;;;6.90;99.90;;;;;;3510553;41;20051;-85
2021/05/02 17:39:17;;;;;;;7.60;3.72;;;6.90;99.90;;;;;;3498405;41;20057;-84
2021/05/02 17:42:19;;;;;;;6.90;3.45;;;7.10;99.90;;;;;;3492696;41;20078;-84
2021/05/02 17:44:50;;;;;;;7.68;3.35;;;7.40;99.90;;;;;;3484044;41;20057;-84
2021/05/02 17:47:27;;;;;;;9.00;4.70;;;7.50;99.90;;;;;;3476975;41;20037;-84
2021/05/02 17:49:57;;;;;;;7.18;3.95;;;7.40;99.90;;;;;;3475473;41;20098;-85
2021/05/02 17:52:43;;;;;;;7.07;4.03;;;7.50;99.90;;;;;;3493837;41;20033;-85
2021/05/02 17:55:13;;;;;;;6.90;3.63;;;7.50;99.90;;;;;;3500272;41;20047;-86
2021/05/02 17:57:42;;;;;;;5.97;3.25;;;7.50;99.90;;;;;;3509740;41;20048;-84
2021/05/02 18:00:15;;;;;;;7.18;3.25;;;7.60;99.90;;;;;;3499433;41;20072;-82
2021/05/02 18:02:50;;;;;;;4.20;2.72;;;7.60;99.90;;;;;;3493174;41;20057;-81
2021/05/02 18:05:46;;;;;;;4.32;2.53;;;7.50;99.90;;;;;;3501416;41;20060;-83
2021/05/02 18:08:27;;;;;;;4.95;2.78;;;7.40;99.90;;;;;;3501959;41;20056;-85
2021/05/02 18:10:58;;;;;;;4.22;2.35;;;7.40;99.90;;;;;;3494571;41;20041;-88
2021/05/02 18:13:39;;;;;;;;;;;7.40;99.90;;;;;;3494659;41;20329;-83
2021/05/02 18:16:19;;;;;;;5.78;3.10;;;7.20;99.90;;;;;;3509793;41;19971;-85
2021/05/02 18:18:51;;;;;;;5.25;2.80;;;7.20;99.90;;;;;;3505655;41;20040;-83
2021/05/02 18:21:24;;;;;;;6.18;2.70;;;7.10;99.90;;;;;;3504787;41;20043;-84
2021/05/02 18:24:45;;;;;;;5.85;2.75;;;6.90;99.90;;;;;;3486744;41;20096;-85
2021/05/02 18:30:17;;;;;;;7.05;3.10;;;6.40;99.90;;;;;;3512543;41;20044;-83
2021/05/02 18:32:46;;;;;;;5.90;2.90;;;6.30;99.90;;;;;;3511399;41;20048;-83
2021/05/02 18:35:24;;;;;;;3.97;2.55;;;6.30;99.90;;;;;;3511802;41;20056;-82
2021/05/02 18:37:54;;;;;;;8.98;2.75;;;6.30;99.90;;;;;;3512376;41;20084;-83
2021/05/02 18:40:29;;;;;;;7.82;3.00;;;6.70;99.90;;;;;;3503452;41;20080;-83
2021/05/02 18:43:01;;;;;;;5.03;2.83;;;6.80;99.90;;;;;;3512404;41;20043;-84
2021/05/02 18:45:41;;;;;;;5.72;2.80;;;6.80;99.90;;;;;;3505572;41;20040;-83
2021/05/02 18:48:20;;;;;;;6.68;2.38;;;6.80;99.90;;;;;;3506134;41;20052;-86
2021/05/02 18:51:03;;;;;;;5.53;2.50;;;7.00;99.90;;;;;;3513794;41;20036;-84
2021/05/02 18:53:38;;;;;;;10.23;2.45;;;7.50;99.90;;;;;;3496414;41;20084;-83
2021/05/02 18:56:19;;;;;;;5.15;2.55;;;7.50;99.90;;;;;;3511122;41;20040;-83
2021/05/02 18:59:21;;;;;;;4.25;2.20;;;7.50;99.90;;;;;;3505678;40;20087;-82
2021/05/02 19:02:43;;;;;;;5.50;2.40;;;7.40;99.90;;;;;;3522008;40;20051;-82
2021/05/02 19:05:23;;;;;;;4.47;2.33;;;7.30;99.90;;;;;;3515039;40;20083;-83
2021/05/02 19:07:59;;;;;;;6.35;2.35;;;7.20;99.90;;;;;;3512740;40;20071;-83
2021/05/02 19:11:03;;;;;;;5.57;2.40;;;7.40;99.90;;;;;;3513817;40;20079;-83
2021/05/02 19:13:46;;;;;;;4.47;2.47;;;7.50;99.90;;;;;;3503452;41;20040;-82
2021/05/02 19:17:02;;;;;;;4.30;2.00;;;7.50;99.90;;;;;;3510113;41;20069;-83
2021/05/02 19:19:40;;;;;;;4.72;2.20;;;7.50;99.90;;;;;;3493441;41;20049;-83
2021/05/02 19:22:21;;;;;;;4.57;3.00;;;7.40;99.90;;;;;;3492205;41;20101;-82
2021/05/02 19:24:54;;;;;;;5.75;2.78;;;7.20;99.90;;;;;;3498654;41;20068;-83
2021/05/02 19:27:28;;;;;;;5.78;2.95;;;7.00;99.90;;;;;;3498971;41;20064;-82
2021/05/02 19:29:59;;;;;;;7.32;2.78;;;6.90;99.90;;;;;;3491306;41;20058;-84
2021/05/02 19:33:07;;;;;;;6.75;2.55;;;6.70;99.90;;;;;;3499844;41;20140;-86
2021/05/02 19:35:47;;;;;;;4.40;2.47;;;6.70;99.90;;;;;;3498534;41;20065;-84
2021/05/02 19:45:36;;;;;;;5.18;2.55;;;6.70;99.90;;;;;;3499106;41;20065;-83
2021/05/02 19:52:19;;;;;;;5.22;2.00;;;6.70;99.90;;;;;;3492296;41;20041;-86
2021/05/02 19:55:47;;;;;;;5.13;2.25;;;6.70;99.90;;;;;;3491072;41;20062;-83
2021/05/02 19:58:24;;;;;;;6.03;2.00;;;6.70;99.90;;;;;;3483882;41;20066;-84
2021/05/02 20:01:41;;;;;;;9.98;2.10;;;7.00;99.90;;;;;;3492353;41;20067;-84
2021/05/02 20:04:31;;;;;;;3.25;2.08;;;7.30;99.90;;;;;;3484576;41;20074;-84
2021/05/02 20:07:14;;;;;;;5.47;2.60;;;7.00;99.90;;;;;;3490949;41;20054;-89
2021/05/02 20:17:40;;;;;;;5.82;2.20;;;7.30;99.90;;;;;;3504537;41;19939;-84
2021/05/02 20:21:06;;;;;;;3.75;2.13;;;7.40;99.90;;;;;;3513099;41;20031;-85
2021/05/02 21:29:20;;;;;;;7.72;2.28;;;6.90;99.90;;;;;;3534445;40;20028;-87
2021/05/02 21:31:49;;;;;;;8.52;2.28;;;6.70;99.90;;;;;;3534996;40;20065;-87
2021/05/02 21:34:18;;;;;;;7.05;2.80;;;6.70;99.90;;;;;;3527399;40;20036;-86
2021/05/02 21:36:46;;;;;;;;;;;6.70;99.90;;;;;;3527124;40;20023;-87
2021/05/02 21:39:15;;;;;;;7.90;2.67;;;6.60;99.90;;;;;;3527277;40;19934;-86
2021/05/02 21:41:45;;;;;;;6.10;2.90;;;6.60;99.90;;;;;;3527282;40;20040;-86